Time;durP1;ratioP1;P1;durP2;ratioP2;P2;SDS_P1;SDS_P2;PMS_P1;PMS_P2;Temp;Humidity;BMP_temperature;BMP_pressure;BME280_temperature;BME280_humidity;BME280_pressure;Samples;Min_cycle;Max_cycle;Signal;HPM_P1;HPM_P2
2023/09/13 00:00:15;;;;;;;7.15;4.28;;;;;;;20.89;80.25;100380.28;5053448;28;20051;-72
2023/09/13 00:02:42;;;;;;;5.25;4.53;;;;;;;20.89;80.89;100369.56;5067058;28;20076;-72
2023/09/13 00:05:10;;;;;;;6.72;4.88;;;;;;;20.91;81.95;100357.72;5051574;28;20387;-73
2023/09/13 00:07:37;;;;;;;11.13;5.97;;;;;;;20.91;82.59;100356.88;5062185;28;20075;-73
2023/09/13 00:10:05;;;;;;;9.18;6.45;;;;;;;20.89;82.23;100357.06;5035265;28;20173;-74
2023/09/13 00:12:33;;;;;;;7.65;6.00;;;;;;;20.90;82.20;100355.22;5033159;28;20052;-72
2023/09/13 00:15:01;;;;;;;10.02;5.95;;;;;;;20.92;83.39;100362.06;5049288;28;20551;-69
2023/09/13 00:17:28;;;;;;;12.38;7.07;;;;;;;20.93;83.75;100357.53;5088676;28;20089;-71
2023/09/13 00:19:56;;;;;;;10.27;6.63;;;;;;;20.92;83.50;100362.06;5072910;28;20056;-71
2023/09/13 00:22:23;;;;;;;7.13;5.93;;;;;;;20.93;83.06;100363.72;5089934;28;20072;-72
2023/09/13 00:24:50;;;;;;;7.38;5.82;;;;;;;20.96;82.89;100366.09;5086593;28;20105;-71
2023/09/13 00:27:18;;;;;;;11.57;6.18;;;;;;;20.98;82.35;100371.25;5052869;28;21100;-73
2023/09/13 00:29:45;;;;;;;9.05;6.60;;;;;;;21.00;82.54;100369.28;5054720;28;20083;-72
2023/09/13 00:32:12;;;;;;;9.45;6.47;;;;;;;21.02;82.04;100374.44;5072503;28;20060;-74
2023/09/13 00:34:40;;;;;;;10.73;5.93;;;;;;;21.03;81.84;100368.09;5057285;28;20067;-70
2023/09/13 00:37:07;;;;;;;8.85;6.85;;;;;;;21.05;81.79;100366.94;5054605;28;20101;-75
2023/09/13 00:39:35;;;;;;;7.40;5.50;;;;;;;21.05;81.22;100364.25;5071009;28;20060;-75
2023/09/13 00:42:02;;;;;;;8.07;5.90;;;;;;;21.07;80.98;100361.41;5072217;28;20040;-74
2023/09/13 00:44:30;;;;;;;10.93;6.18;;;;;;;21.06;80.60;100355.22;5070227;28;20104;-76
2023/09/13 00:46:58;;;;;;;8.07;5.60;;;;;;;21.06;80.35;100355.22;5060287;28;21847;-78
2023/09/13 00:49:25;;;;;;;11.90;6.07;;;;;;;21.06;80.27;100360.56;5053748;28;20051;-75
2023/09/13 00:51:54;;;;;;;10.98;5.90;;;;;;;21.07;79.86;100366.75;5072160;28;20071;-75
2023/09/13 00:54:21;;;;;;;5.55;5.03;;;;;;;21.08;79.43;100373.81;5037482;28;20052;-70
2023/09/13 00:56:49;;;;;;;9.15;5.18;;;;;;;21.12;79.08;100380.50;5089095;28;20129;-70
2023/09/13 00:59:16;;;;;;;6.55;5.05;;;;;;;21.13;79.17;100375.00;5070212;28;20658;-71
2023/09/13 01:01:43;;;;;;;9.48;5.55;;;;;;;21.11;78.67;100371.63;5038262;28;20719;-78
2023/09/13 01:04:11;;;;;;;7.43;5.22;;;;;;;21.10;78.76;100374.47;5067661;28;20048;-70
2023/09/13 01:06:51;;;;;;;6.93;5.63;;;;;;;21.10;78.68;100359.25;5083456;28;20106;-71
2023/09/13 01:09:18;;;;;;;9.60;5.05;;;;;;;21.11;78.40;100357.41;5066340;28;20066;-71
2023/09/13 01:11:46;;;;;;;7.28;4.88;;;;;;;21.10;78.02;100355.75;5068213;28;20060;-71
2023/09/13 01:14:13;;;;;;;10.15;5.47;;;;;;;21.07;78.06;100356.06;5051112;28;20056;-70
2023/09/13 01:17:10;;;;;;;6.50;4.93;;;;;;;21.06;77.73;100360.56;5070086;28;20527;-71
2023/09/13 01:19:57;;;;;;;7.32;4.63;;;;;;;21.05;77.72;100358.91;5068117;28;20102;-71
2023/09/13 01:22:27;;;;;;;5.60;4.72;;;;;;;21.06;77.68;100344.53;5068678;28;20054;-72
2023/09/13 01:25:26;;;;;;;7.72;5.30;;;;;;;21.08;77.52;100347.88;5086454;28;20052;-73
2023/09/13 01:27:56;;;;;;;11.43;5.85;;;;;;;21.07;77.22;100342.69;5084100;28;20841;-72
2023/09/13 01:30:25;;;;;;;8.95;4.38;;;;;;;21.05;77.35;100329.47;5051141;28;20064;-74
2023/09/13 01:32:53;;;;;;;8.75;5.55;;;;;;;21.01;77.43;100325.44;5050668;28;20048;-73
2023/09/13 01:35:21;;;;;;;6.47;5.10;;;;;;;21.01;77.25;100316.59;5052435;28;20056;-74
2023/09/13 01:37:48;;;;;;;8.20;4.80;;;;;;;20.98;77.23;100302.53;5069970;28;20567;-72
2023/09/13 01:40:16;;;;;;;8.68;5.22;;;;;;;20.97;77.54;100287.47;5046828;28;20048;-72
2023/09/13 01:42:45;;;;;;;8.30;5.50;;;;;;;20.95;77.66;100284.13;5068926;28;20905;-74
2023/09/13 01:45:13;;;;;;;7.53;5.25;;;;;;;20.94;77.30;100281.63;5053103;28;20122;-70
2023/09/13 01:47:43;;;;;;;7.00;4.90;;;;;;;20.94;77.03;100289.66;5070442;28;20052;-73
2023/09/13 01:50:17;;;;;;;13.20;5.50;;;;;;;20.93;77.07;100307.53;5050818;28;20040;-73
2023/09/13 01:52:44;;;;;;;8.55;4.82;;;;;;;20.94;76.76;100297.69;5062645;28;20044;-74
2023/09/13 01:55:12;;;;;;;12.45;4.70;;;;;;;20.95;76.55;100304.72;5052501;28;20482;-73
2023/09/13 01:57:39;;;;;;;4.90;4.20;;;;;;;20.97;76.42;100332.13;5087524;28;20048;-72
2023/09/13 02:00:09;;;;;;;7.07;4.53;;;;;;;20.96;76.62;100502.56;5051185;28;20057;-73
2023/09/13 02:02:37;;;;;;;17.75;6.13;;;;;;;20.78;78.79;100573.22;5051973;28;20414;-65
2023/09/13 02:05:04;;;;;;;17.92;5.85;;;;;;;20.79;80.45;100577.56;5084689;28;20084;-69
2023/09/13 02:07:32;;;;;;;24.17;5.70;;;;;;;20.79;83.49;100554.31;5057588;28;20059;-69
2023/09/13 02:09:59;;;;;;;26.23;6.88;;;;;;;20.66;90.16;100610.91;5050174;28;20084;-68
2023/09/13 02:12:27;;;;;;;16.98;6.20;;;;;;;20.32;93.62;100608.13;5035165;28;20075;-69
2023/09/13 02:14:54;;;;;;;15.10;6.50;;;;;;;20.00;100.00;100576.59;5052411;28;20052;-68
2023/09/13 02:17:22;;;;;;;13.35;6.55;;;;;;;19.85;100.00;100554.03;5067182;28;20048;-67
2023/09/13 02:19:50;;;;;;;27.92;9.10;;;;;;;19.64;100.00;100524.97;5065822;28;20059;-68
2023/09/13 02:25:40;;;;;;;14.27;6.78;;;;;;;19.66;100.00;100446.38;5074416;28;20036;-67
2023/09/13 02:28:07;;;;;;;11.00;6.47;;;;;;;19.67;100.00;100410.66;5087926;28;20044;-67
2023/09/13 02:30:35;;;;;;;10.25;7.40;;;;;;;19.67;100.00;100407.97;5037330;28;20052;-69
2023/09/13 02:33:02;;;;;;;14.18;6.95;;;;;;;19.64;100.00;100418.16;5053537;28;20109;-69
2023/09/13 02:35:30;;;;;;;14.77;6.60;;;;;;;19.63;100.00;100413.78;5057074;28;20565;-69
2023/09/13 02:37:58;;;;;;;10.63;5.90;;;;;;;19.62;100.00;100409.44;5049826;28;20743;-68
2023/09/13 02:40:26;;;;;;;15.30;7.70;;;;;;;19.59;100.00;100397.22;5036255;28;20052;-69
2023/09/13 02:42:53;;;;;;;12.10;6.97;;;;;;;19.55;100.00;100385.16;5071850;28;20109;-69
2023/09/13 02:45:20;;;;;;;11.55;6.13;;;;;;;19.53;100.00;100381.78;5087457;28;20058;-68
2023/09/13 02:47:48;;;;;;;14.40;7.32;;;;;;;19.47;100.00;100390.44;5070010;28;20054;-68
2023/09/13 02:50:15;;;;;;;15.48;7.03;;;;;;;19.41;100.00;100367.88;5071994;28;20048;-67
2023/09/13 02:52:43;;;;;;;12.25;6.68;;;;;;;19.38;100.00;100348.63;5070687;28;20065;-67
2023/09/13 02:55:11;;;;;;;16.27;7.22;;;;;;;19.37;100.00;100342.47;5065749;28;20083;-67
2023/09/13 02:57:38;;;;;;;17.85;7.05;;;;;;;19.36;100.00;100331.91;5086838;28;20064;-68
2023/09/13 03:00:06;;;;;;;10.40;6.85;;;;;;;19.31;100.00;100318.22;5068697;28;20135;-69
2023/09/13 03:02:33;;;;;;;11.57;6.97;;;;;;;19.29;100.00;100297.03;5086254;28;20371;-68
2023/09/13 03:05:01;;;;;;;13.70;6.47;;;;;;;19.26;100.00;100272.47;5069362;28;20055;-69
2023/09/13 03:07:28;;;;;;;11.20;6.75;;;;;;;19.25;100.00;100265.47;5069863;28;20059;-68
2023/09/13 03:09:59;;;;;;;18.98;6.82;;;;;;;19.19;100.00;100270.41;5044659;28;20097;-67
2023/09/13 03:12:26;;;;;;;10.80;5.72;;;;;;;19.11;100.00;100257.00;5071679;28;20044;-67
2023/09/13 03:14:57;;;;;;;10.43;5.65;;;;;;;19.00;100.00;100262.56;5067853;28;20067;-66
2023/09/13 03:17:24;;;;;;;10.93;6.40;;;;;;;18.94;100.00;100258.69;5056575;28;20067;-68
2023/09/13 03:19:52;;;;;;;8.80;5.72;;;;;;;18.89;100.00;100262.81;5066109;28;20065;-67
2023/09/13 03:22:19;;;;;;;8.88;5.03;;;;;;;18.86;100.00;100258.63;5068950;28;20044;-68
2023/09/13 03:24:47;;;;;;;8.60;5.97;;;;;;;18.86;100.00;100252.44;5080338;28;20079;-67
2023/09/13 03:27:14;;;;;;;13.45;5.72;;;;;;;18.84;100.00;100257.09;5066832;28;20052;-67
2023/09/13 03:29:42;;;;;;;10.57;6.05;;;;;;;18.80;100.00;100261.06;5038148;28;20175;-67
2023/09/13 03:32:09;;;;;;;16.92;7.25;;;;;;;18.79;100.00;100259.41;5069665;28;20066;-66
2023/09/13 03:34:37;;;;;;;8.93;6.50;;;;;;;18.80;100.00;100267.25;5085754;28;20135;-67
2023/09/13 03:37:05;;;;;;;12.95;5.80;;;;;;;18.79;100.00;100264.72;5034851;28;20158;-66
2023/09/13 03:39:34;;;;;;;12.63;7.32;;;;;;;18.76;100.00;100260.53;5049052;28;20071;-66
2023/09/13 03:42:01;;;;;;;15.02;6.70;;;;;;;18.69;100.00;100252.31;5049983;28;20124;-71
2023/09/13 03:44:29;;;;;;;16.75;6.82;;;;;;;18.68;100.00;100239.91;5049262;28;20074;-69
2023/09/13 03:46:56;;;;;;;16.38;7.00;;;;;;;18.68;100.00;100231.91;5082642;28;20055;-69
2023/09/13 03:49:25;;;;;;;10.75;6.53;;;;;;;18.64;100.00;100232.38;5067804;28;20120;-68
2023/09/13 03:51:52;;;;;;;12.05;7.88;;;;;;;18.61;100.00;100238.88;5082390;28;20040;-68
2023/09/13 03:54:20;;;;;;;19.35;9.13;;;;;;;18.62;100.00;100226.38;5035147;28;20105;-66
2023/09/13 03:56:47;;;;;;;12.02;7.70;;;;;;;18.60;100.00;100233.69;5051671;28;20056;-68
2023/09/13 03:59:14;;;;;;;15.40;8.02;;;;;;;18.61;100.00;100240.69;5085591;28;21295;-69
2023/09/13 04:01:41;;;;;;;17.08;8.43;;;;;;;18.60;100.00;100247.84;5063557;28;20445;-69
2023/09/13 04:04:09;;;;;;;13.60;7.70;;;;;;;18.56;100.00;100246.47;5066738;28;20433;-68
2023/09/13 04:06:38;;;;;;;21.65;9.07;;;;;;;18.54;100.00;100245.78;5068814;28;20367;-68
2023/09/13 04:09:06;;;;;;;14.18;7.63;;;;;;;18.52;100.00;100236.28;5068290;28;20040;-69
2023/09/13 04:11:33;;;;;;;10.95;7.05;;;;;;;18.53;100.00;100216.63;5048216;28;20093;-70
2023/09/13 04:14:01;;;;;;;19.35;8.95;;;;;;;18.50;100.00;100217.75;5050888;28;20040;-68
2023/09/13 04:16:28;;;;;;;14.10;8.13;;;;;;;18.46;100.00;100216.38;5066391;28;20048;-68
2023/09/13 04:18:56;;;;;;;18.35;8.98;;;;;;;18.43;100.00;100206.03;5033605;28;20055;-69
2023/09/13 04:21:23;;;;;;;17.80;8.55;;;;;;;18.41;100.00;100215.97;5066252;28;20437;-68
2023/09/13 04:23:50;;;;;;;21.40;9.45;;;;;;;18.40;100.00;100216.97;5043611;28;20113;-69
2023/09/13 04:26:21;;;;;;;11.80;8.23;;;;;;;18.43;100.00;100211.34;5081841;28;20068;-68
2023/09/13 04:29:14;;;;;;;13.07;8.38;;;;;;;18.44;100.00;100213.84;5084617;28;20186;-68
2023/09/13 04:31:41;;;;;;;13.95;9.52;;;;;;;18.44;100.00;100213.03;5061661;28;20063;-68
2023/09/13 04:34:08;;;;;;;16.15;9.00;;;;;;;18.43;100.00;100214.84;5064371;28;20173;-68
2023/09/13 04:36:36;;;;;;;19.67;8.90;;;;;;;18.43;100.00;100225.53;5067995;28;20071;-67
2023/09/13 04:39:03;;;;;;;12.40;8.70;;;;;;;18.42;100.00;100231.84;5048645;28;20083;-67
2023/09/13 04:41:31;;;;;;;14.20;9.27;;;;;;;18.40;100.00;100230.31;5049492;28;20048;-68
2023/09/13 04:43:58;;;;;;;14.02;10.07;;;;;;;18.39;100.00;100239.28;5049934;28;20044;-69
2023/09/13 04:46:29;;;;;;;16.70;9.98;;;;;;;18.37;100.00;100234.13;5056486;28;20052;-68
2023/09/13 04:48:57;;;;;;;15.65;9.70;;;;;;;18.39;100.00;100241.97;5062773;28;20056;-68
2023/09/13 04:51:24;;;;;;;18.52;9.43;;;;;;;18.41;100.00;100251.47;5045164;28;20052;-68
2023/09/13 04:53:52;;;;;;;17.25;10.57;;;;;;;18.43;100.00;100251.34;5081318;28;20068;-68
2023/09/13 04:56:19;;;;;;;16.73;9.73;;;;;;;18.44;100.00;100258.34;5062694;28;20568;-68
2023/09/13 04:58:47;;;;;;;18.77;11.25;;;;;;;18.43;100.00;100262.84;5063312;28;20048;-68
2023/09/13 05:01:16;;;;;;;16.85;9.40;;;;;;;18.46;100.00;100264.34;5083719;28;20088;-68
2023/09/13 05:03:45;;;;;;;19.90;10.65;;;;;;;18.48;100.00;100279.22;5052940;28;20048;-68
2023/09/13 05:06:14;;;;;;;15.07;9.65;;;;;;;18.47;100.00;100271.38;5085838;28;20105;-69
2023/09/13 05:08:41;;;;;;;21.60;10.98;;;;;;;18.50;100.00;100279.06;5051877;28;20506;-70
2023/09/13 05:11:08;;;;;;;26.10;11.93;;;;;;;18.50;100.00;100276.38;5065667;28;20548;-68
2023/09/13 05:13:38;;;;;;;14.13;10.43;;;;;;;18.48;100.00;100284.53;5059054;28;20044;-68
2023/09/13 05:16:05;;;;;;;15.38;10.18;;;;;;;18.44;100.00;100283.16;5085034;28;20617;-71
2023/09/13 05:18:33;;;;;;;15.13;10.38;;;;;;;18.43;100.00;100275.31;5063671;28;20538;-69
2023/09/13 05:21:00;;;;;;;16.77;9.75;;;;;;;18.45;100.00;100290.16;5083893;28;20076;-70
2023/09/13 05:23:28;;;;;;;16.52;10.88;;;;;;;18.50;100.00;100289.72;5049068;28;20064;-69
2023/09/13 05:25:55;;;;;;;23.13;10.52;;;;;;;18.56;100.00;100291.81;5066229;28;21090;-67
2023/09/13 05:28:24;;;;;;;21.20;10.52;;;;;;;18.61;100.00;100286.84;5069043;28;20097;-67
2023/09/13 05:30:52;;;;;;;15.68;11.25;;;;;;;18.66;100.00;100294.41;5063770;28;20510;-68
2023/09/13 05:33:19;;;;;;;18.90;11.55;;;;;;;18.64;100.00;100307.03;5066540;28;20047;-69
2023/09/13 05:35:47;;;;;;;17.52;10.85;;;;;;;18.65;100.00;100304.22;5062662;28;20082;-69
2023/09/13 05:38:14;;;;;;;21.60;12.43;;;;;;;18.66;100.00;100307.72;5064083;28;20111;-69
2023/09/13 05:40:41;;;;;;;17.45;11.85;;;;;;;18.65;100.00;100316.72;5084118;28;20076;-67
2023/09/13 05:43:10;;;;;;;20.67;12.57;;;;;;;18.60;100.00;100316.34;5063014;28;20511;-69
2023/09/13 05:45:39;;;;;;;18.85;12.35;;;;;;;18.64;100.00;100320.34;5068814;28;20133;-68
2023/09/13 05:48:07;;;;;;;19.33;12.82;;;;;;;18.69;100.00;100313.63;5068857;28;20048;-67
2023/09/13 05:50:36;;;;;;;19.92;12.68;;;;;;;18.78;100.00;100314.56;5066859;28;20043;-68
2023/09/13 05:53:03;;;;;;;21.75;14.38;;;;;;;18.78;100.00;100311.03;5053790;28;20043;-68
2023/09/13 05:55:31;;;;;;;20.83;12.82;;;;;;;18.82;100.00;100301.75;5049658;28;20056;-69
2023/09/13 05:57:58;;;;;;;20.50;12.88;;;;;;;18.98;100.00;100301.91;5053137;28;20048;-68
2023/09/13 06:00:26;;;;;;;18.98;13.25;;;;;;;19.10;100.00;100298.03;5086199;28;20402;-69
2023/09/13 06:02:53;;;;;;;14.13;12.13;;;;;;;19.16;100.00;100302.75;5031197;28;20040;-68
2023/09/13 06:05:21;;;;;;;16.75;12.60;;;;;;;19.16;100.00;100297.41;5052508;28;20080;-68
2023/09/13 06:07:50;;;;;;;15.63;12.18;;;;;;;19.29;100.00;100297.03;5069064;28;20518;-69
2023/09/13 06:10:17;;;;;;;19.35;12.57;;;;;;;19.39;100.00;100299.59;5087700;28;20048;-69
2023/09/13 06:12:45;;;;;;;18.23;13.50;;;;;;;19.42;100.00;100294.78;5054181;28;20066;-68
2023/09/13 06:15:13;;;;;;;19.95;12.90;;;;;;;19.48;100.00;100293.31;5054151;28;20040;-67
2023/09/13 06:17:40;;;;;;;21.08;13.90;;;;;;;19.42;100.00;100299.28;5066756;28;20052;-69
2023/09/13 06:20:08;;;;;;;14.93;12.70;;;;;;;19.46;100.00;100293.47;5088439;28;20060;-68
2023/09/13 06:22:36;;;;;;;17.30;12.95;;;;;;;19.57;100.00;100295.06;5057809;28;20040;-69
2023/09/13 06:25:04;;;;;;;19.27;12.80;;;;;;;19.62;100.00;100291.94;5071436;28;20109;-68
2023/09/13 06:27:37;;;;;;;19.80;13.43;;;;;;;19.70;100.00;100298.19;5070268;28;20051;-69
2023/09/13 06:30:05;;;;;;;20.75;13.20;;;;;;;19.78;100.00;100304.56;5037079;28;20445;-69
2023/09/13 06:32:32;;;;;;;20.13;13.00;;;;;;;19.80;100.00;100302.56;5051675;28;20085;-68
2023/09/13 06:35:12;;;;;;;15.43;12.55;;;;;;;19.86;100.00;100304.63;5050932;28;20040;-68
2023/09/13 06:37:44;;;;;;;14.93;13.20;;;;;;;19.84;100.00;100303.94;5067356;28;20060;-68
2023/09/13 06:40:13;;;;;;;15.82;12.18;;;;;;;19.85;100.00;100306.44;5065628;28;20051;-69
2023/09/13 06:42:42;;;;;;;21.77;12.27;;;;;;;19.71;100.00;100302.50;5051110;28;20056;-68
2023/09/13 06:45:27;;;;;;;15.82;12.27;;;;;;;19.85;100.00;100314.44;5067353;28;20106;-69
2023/09/13 06:47:57;;;;;;;20.00;11.70;;;;;;;19.89;100.00;100321.16;5080851;28;20059;-69
2023/09/13 06:50:26;;;;;;;16.27;11.90;;;;;;;19.92;100.00;100325.38;5030704;28;20571;-69
2023/09/13 06:53:13;;;;;;;13.23;11.00;;;;;;;20.01;100.00;100323.56;5058746;28;20087;-68
2023/09/13 06:56:00;;;;;;;11.95;10.18;;;;;;;19.90;100.00;100324.66;5055074;28;20129;-68
2023/09/13 06:58:32;;;;;;;15.57;10.52;;;;;;;19.92;100.00;100333.38;5066962;28;20139;-69
2023/09/13 07:01:02;;;;;;;11.55;8.85;;;;;;;19.97;100.00;100357.78;5033881;28;20083;-68
2023/09/13 07:03:32;;;;;;;16.08;9.88;;;;;;;19.72;100.00;100328.25;5067235;28;20076;-69
2023/09/13 07:06:03;;;;;;;15.10;10.80;;;;;;;19.55;100.00;100325.59;5052222;28;20082;-69
2023/09/13 07:08:31;;;;;;;13.77;9.60;;;;;;;19.47;100.00;100335.19;5053940;28;20098;-69
2023/09/13 07:10:58;;;;;;;10.63;9.07;;;;;;;19.49;100.00;100329.69;5057112;28;20032;-68
2023/09/13 07:13:26;;;;;;;15.50;9.35;;;;;;;19.67;100.00;100343.88;5082775;28;20580;-69
2023/09/13 07:15:54;;;;;;;13.43;10.15;;;;;;;19.65;100.00;100340.53;5068663;28;20064;-69
2023/09/13 07:18:23;;;;;;;12.10;9.18;;;;;;;19.50;100.00;100347.41;5030204;28;20063;-71
2023/09/13 07:20:50;;;;;;;12.00;9.50;;;;;;;19.54;100.00;100343.41;5068025;28;20043;-68
2023/09/13 07:23:18;;;;;;;15.68;8.75;;;;;;;19.66;100.00;100344.88;5035024;28;20048;-68
2023/09/13 07:25:48;;;;;;;9.23;7.40;;;;;;;19.73;100.00;100353.13;5048952;28;20081;-68
2023/09/13 07:28:16;;;;;;;12.30;7.65;;;;;;;19.77;100.00;100349.16;5065539;28;20125;-68
2023/09/13 07:30:43;;;;;;;11.32;7.03;;;;;;;19.85;100.00;100369.72;5051773;28;20097;-67
2023/09/13 07:33:11;;;;;;;9.43;7.97;;;;;;;19.56;100.00;100357.47;5048654;28;20550;-68
2023/09/13 07:35:38;;;;;;;10.65;7.45;;;;;;;19.28;100.00;100354.06;5063949;28;20063;-68
2023/09/13 07:38:06;;;;;;;8.98;7.15;;;;;;;19.37;100.00;100363.00;5066740;28;20052;-68
2023/09/13 07:40:33;;;;;;;10.13;7.07;;;;;;;19.57;100.00;100355.63;5049838;28;20082;-68
2023/09/13 07:43:00;;;;;;;13.07;8.10;;;;;;;19.74;100.00;100357.47;5051851;28;20101;-68
2023/09/13 07:45:33;;;;;;;8.75;7.40;;;;;;;19.72;100.00;100362.09;5050726;28;20052;-70
2023/09/13 07:48:02;;;;;;;7.43;6.65;;;;;;;19.70;100.00;100354.25;5082958;28;20129;-68
2023/09/13 07:50:33;;;;;;;11.10;7.20;;;;;;;19.88;100.00;100366.75;5069318;28;20113;-69
2023/09/13 07:53:00;;;;;;;7.93;6.78;;;;;;;19.69;100.00;100373.97;5038393;28;20063;-68
2023/09/13 07:55:32;;;;;;;7.50;6.40;;;;;;;19.64;100.00;100375.44;5066523;28;20048;-69
2023/09/13 07:58:00;;;;;;;10.73;6.68;;;;;;;19.44;100.00;100372.88;5068306;28;20206;-68
2023/09/13 08:00:29;;;;;;;13.95;6.82;;;;;;;19.44;100.00;100386.22;5082789;28;20048;-69
2023/09/13 08:02:58;;;;;;;7.35;5.88;;;;;;;19.15;100.00;100386.47;5084782;28;20124;-68
2023/09/13 08:05:25;;;;;;;7.57;5.65;;;;;;;19.33;100.00;100389.13;5085064;28;20048;-70
2023/09/13 08:07:53;;;;;;;13.80;6.53;;;;;;;19.60;100.00;100390.91;5047716;28;20055;-68
2023/09/13 08:10:24;;;;;;;9.20;6.78;;;;;;;19.63;100.00;100392.41;5047301;28;20063;-69
2023/09/13 08:12:52;;;;;;;8.55;6.60;;;;;;;19.44;100.00;100398.72;5065838;28;20441;-68
2023/09/13 08:15:19;;;;;;;10.05;5.63;;;;;;;19.51;100.00;100389.13;5033193;28;20040;-69
2023/09/13 08:17:56;;;;;;;7.85;6.07;;;;;;;19.61;100.00;100397.09;5058805;28;20132;-69
2023/09/13 08:20:24;;;;;;;5.97;5.38;;;;;;;19.67;100.00;100391.13;5083774;28;20109;-69
2023/09/13 08:22:51;;;;;;;9.93;6.57;;;;;;;19.63;100.00;100393.28;5064759;28;20472;-68
2023/09/13 08:25:19;;;;;;;8.82;5.07;;;;;;;19.97;100.00;100403.19;5066158;28;20060;-68
2023/09/13 08:27:46;;;;;;;17.10;6.53;;;;;;;19.72;100.00;100400.38;5063759;28;20137;-69
2023/09/13 08:30:13;;;;;;;10.95;6.28;;;;;;;19.79;100.00;100399.72;5064825;28;20044;-69
2023/09/13 08:32:41;;;;;;;6.50;5.57;;;;;;;19.96;100.00;100404.22;5064021;28;20059;-69
2023/09/13 08:35:08;;;;;;;6.07;5.18;;;;;;;19.91;100.00;100407.34;5061979;28;20051;-69
2023/09/13 08:37:35;;;;;;;6.88;5.13;;;;;;;20.02;100.00;100408.06;5050088;28;20489;-69
2023/09/13 08:40:04;;;;;;;7.10;6.38;;;;;;;19.77;100.00;100407.91;5050776;28;20147;-68
2023/09/13 08:42:32;;;;;;;9.35;5.90;;;;;;;19.71;100.00;100409.34;5051448;28;20406;-69
2023/09/13 08:44:59;;;;;;;12.07;5.30;;;;;;;20.00;100.00;100404.75;5049442;28;20513;-69
2023/09/13 08:47:28;;;;;;;9.10;5.28;;;;;;;20.17;100.00;100411.84;5070275;28;20105;-68
2023/09/13 08:50:13;;;;;;;;;;;;;;;20.20;100.00;100415.03;5056485;28;20749;-69
2023/09/13 08:52:42;;;;;;;6.88;4.60;;;;;;;20.37;100.00;100413.31;5067627;28;19966;-68
2023/09/13 08:55:09;;;;;;;4.75;4.13;;;;;;;20.92;97.35;100420.94;5066814;28;20060;-68
2023/09/13 08:57:37;;;;;;;5.75;4.20;;;;;;;21.20;94.75;100431.38;5066025;28;20072;-68
2023/09/13 09:00:08;;;;;;;8.18;3.60;;;;;;;21.14;93.65;100416.81;5050265;28;20104;-69
2023/09/13 09:02:38;;;;;;;5.85;3.80;;;;;;;21.01;92.37;100426.31;5041781;28;20036;-69
2023/09/13 09:05:11;;;;;;;5.03;3.53;;;;;;;20.88;93.55;100435.63;5046938;28;20178;-69
2023/09/13 09:07:40;;;;;;;5.60;3.30;;;;;;;20.65;94.11;100429.19;5036210;28;20099;-69
2023/09/13 09:10:11;;;;;;;6.03;3.53;;;;;;;20.47;95.44;100430.09;5044232;28;20152;-69
2023/09/13 09:12:42;;;;;;;6.35;3.53;;;;;;;20.42;95.38;100428.88;5060143;28;20805;-68
2023/09/13 09:15:10;;;;;;;5.15;3.50;;;;;;;20.12;98.14;100441.72;5066187;28;20076;-68
2023/09/13 09:17:38;;;;;;;5.50;3.20;;;;;;;20.23;98.77;100441.47;5063037;28;20056;-69
2023/09/13 09:20:06;;;;;;;4.95;3.20;;;;;;;20.23;99.00;100441.47;5046342;28;20507;-68
2023/09/13 09:22:34;;;;;;;4.53;3.30;;;;;;;20.03;100.00;100460.53;5049686;28;20633;-69
2023/09/13 09:25:07;;;;;;;8.18;3.58;;;;;;;20.00;100.00;100453.66;5050897;28;20078;-68
2023/09/13 09:27:37;;;;;;;6.20;3.10;;;;;;;19.88;100.00;100458.41;5049803;28;20048;-68
2023/09/13 09:30:06;;;;;;;4.32;2.97;;;;;;;19.79;100.00;100453.16;5032456;28;20138;-68
2023/09/13 09:32:38;;;;;;;4.63;3.15;;;;;;;19.76;100.00;100448.94;5032411;28;20060;-69
2023/09/13 09:35:06;;;;;;;3.78;2.88;;;;;;;19.82;100.00;100456.38;5079164;28;20117;-69
2023/09/13 09:37:34;;;;;;;3.70;2.58;;;;;;;19.93;100.00;100469.47;5067956;28;20490;-69
2023/09/13 09:40:10;;;;;;;3.40;2.20;;;;;;;19.71;100.00;100457.41;5069031;28;20040;-68
2023/09/13 09:42:37;;;;;;;4.45;2.28;;;;;;;19.85;100.00;100465.88;5066309;28;20109;-69
2023/09/13 09:45:05;;;;;;;3.38;2.63;;;;;;;19.95;100.00;100480.03;5047180;28;20052;-69
2023/09/13 09:47:37;;;;;;;2.72;2.28;;;;;;;20.06;100.00;100470.91;5035822;28;20489;-69
2023/09/13 09:50:05;;;;;;;3.20;2.65;;;;;;;20.00;100.00;100480.38;5034278;28;20097;-69
2023/09/13 09:52:34;;;;;;;4.78;2.88;;;;;;;19.87;100.00;100474.59;5053105;28;20032;-69
2023/09/13 09:55:04;;;;;;;4.38;2.72;;;;;;;19.90;100.00;100474.28;5067619;28;20036;-68
2023/09/13 09:57:32;;;;;;;5.78;3.25;;;;;;;19.82;100.00;100479.56;5048213;28;20498;-68
2023/09/13 10:00:00;;;;;;;5.72;2.50;;;;;;;20.03;100.00;100473.88;5048292;28;20076;-68
2023/09/13 10:02:28;;;;;;;3.17;2.92;;;;;;;19.87;100.00;100485.28;5063153;28;20152;-67
2023/09/13 10:04:59;;;;;;;4.18;3.25;;;;;;;19.63;100.00;100486.75;5051280;28;20448;-69
2023/09/13 10:07:27;;;;;;;3.38;2.72;;;;;;;19.75;100.00;100476.66;5051687;28;20040;-69
2023/09/13 10:09:55;;;;;;;3.20;2.80;;;;;;;20.00;100.00;100474.22;5066706;28;20497;-68
2023/09/13 10:12:22;;;;;;;4.72;2.97;;;;;;;20.27;100.00;100475.91;5084063;28;20048;-68
2023/09/13 10:14:50;;;;;;;3.22;2.60;;;;;;;20.29;100.00;100479.25;5055114;28;20209;-67
2023/09/13 10:17:19;;;;;;;4.53;2.50;;;;;;;20.85;99.71;100489.47;5067317;28;20075;-68
2023/09/13 10:19:49;;;;;;;4.90;2.72;;;;;;;21.08;95.99;100489.75;5032304;28;20055;-69
2023/09/13 10:22:17;;;;;;;3.65;3.00;;;;;;;21.35;95.46;100487.84;5046356;28;20051;-67
2023/09/13 10:24:52;;;;;;;4.60;2.65;;;;;;;21.45;93.85;100492.06;5065121;28;20083;-68
2023/09/13 10:27:22;;;;;;;4.10;2.50;;;;;;;21.44;93.15;100501.09;5069275;28;20059;-68
2023/09/13 10:29:56;;;;;;;3.08;2.30;;;;;;;21.35;93.28;100504.75;5064377;28;20109;-68
2023/09/13 10:32:31;;;;;;;2.85;2.63;;;;;;;21.30;93.49;100503.50;5066390;28;20047;-69
2023/09/13 10:35:01;;;;;;;5.38;2.60;;;;;;;21.49;94.29;100519.34;5050092;28;20101;-70
2023/09/13 10:37:52;;;;;;;3.22;2.92;;;;;;;21.18;94.71;100513.69;5048642;28;20989;-68
2023/09/13 10:40:23;;;;;;;2.60;2.40;;;;;;;21.25;94.29;100514.72;5049380;28;20568;-69
2023/09/13 10:42:50;;;;;;;3.33;2.50;;;;;;;21.27;95.29;100525.28;5079502;28;20453;-69
2023/09/13 10:45:18;;;;;;;6.38;3.13;;;;;;;20.89;95.52;100520.28;5063789;28;20594;-68
2023/09/13 10:47:49;;;;;;;5.40;2.90;;;;;;;20.76;97.82;100524.34;5032524;28;20083;-69
2023/09/13 10:50:17;;;;;;;2.78;2.55;;;;;;;20.93;97.01;100521.59;5047281;28;20093;-69
2023/09/13 10:52:44;;;;;;;4.43;2.67;;;;;;;20.94;97.50;100517.13;5051308;28;20055;-69
2023/09/13 10:55:13;;;;;;;4.97;2.53;;;;;;;21.16;96.97;100511.19;5067424;28;20398;-68
2023/09/13 10:57:41;;;;;;;4.88;3.13;;;;;;;21.40;95.53;100523.84;5048273;28;20058;-68
2023/09/13 11:00:12;;;;;;;3.78;2.78;;;;;;;21.48;94.83;100525.72;5064715;28;20475;-68
2023/09/13 11:02:43;;;;;;;3.20;2.50;;;;;;;21.44;95.79;100529.72;5043369;28;20097;-69
2023/09/13 11:05:12;;;;;;;5.68;2.55;;;;;;;21.53;94.58;100534.09;5049006;28;20052;-67
2023/09/13 11:07:41;;;;;;;2.65;2.25;;;;;;;21.60;94.69;100539.63;5061962;28;20051;-69
2023/09/13 11:10:17;;;;;;;4.20;2.63;;;;;;;21.60;94.41;100542.31;5065159;28;20475;-68
2023/09/13 11:12:50;;;;;;;;;;;;;;;22.03;93.45;100543.06;5041973;28;20172;-67
2023/09/13 11:15:25;;;;;;;5.43;2.50;;;;;;;22.78;88.50;100550.88;5046543;28;19937;-68
2023/09/13 11:18:06;;;;;;;3.20;2.00;;;;;;;22.90;86.94;100538.81;5052507;28;20048;-69
2023/09/13 11:20:38;;;;;;;3.78;1.98;;;;;;;22.73;86.30;100544.19;5050139;28;20072;-69
2023/09/13 11:23:09;;;;;;;2.90;2.30;;;;;;;22.23;89.21;100558.66;5083916;28;20109;-69
2023/09/13 11:25:54;;;;;;;6.78;2.47;;;;;;;21.64;92.26;100547.16;5066009;28;20090;-69